Bonnieville, Kentucky
Current Conditions -  °F | °C
As of 11:55 AM on Saturday 20 Dec 2014 (Local Time) from KGLW Reporting Station
Overcast Overcast  
Wind Chill: 38°   Ceiling: 5000
Heat Index: 38°   Visibility: 10mi
Dew Point: 26°   Wind: 3mph
Humidity: 61%   Direction: 110°ESE
Pressure: 30.25"   Gusts: NA
Location:  37.38°N, 85.9°W
Report Text: KGLW 201755Z AUTO 11003KT 10SM OVC050 04/M03 A3025 RMK AO2 T00351034 10036 21010
Loading
Personal Weather Stations






























Interactive Weather Map New forecast layout! Learn more

10-Day Weather Forecast

Advertisements
Track Severe Weather on mobile